Alta Vista, Kansas
Current Conditions -  °F | °C
As of 3:58 AM on Wednesday 22 Oct 2014 (Local Time) from KFRI Reporting Station
Clear Clear  
Wind Chill: 61°   Ceiling: Unl
Heat Index: 61°   Visibility: 10mi
Dew Point: 49°   Wind: 14mph
Humidity: 63%   Direction: 150°SSE
Pressure: 30.06"   Gusts: 24mph
Location:  38.86°N, 96.49°W
Report Text: KFRI 220858Z AUTO 15012G21KT 10SM CLR 16/09 A3006 RMK AO2 SLP171 T01630093 52008
Loading
Personal Weather Stations






























Interactive Weather Map New forecast layout! Learn more

10-Day Weather Forecast

Advertisements
Track Severe Weather on mobile